createdAt,value
2022-10-07T00:04:47.686Z,13.70
2022-10-07T00:09:45.758Z,13.70
2022-10-07T00:15:33.375Z,13.60
2022-10-07T00:20:37.475Z,13.60
2022-10-07T00:25:37.782Z,13.50
2022-10-07T00:30:35.873Z,13.50
2022-10-07T00:35:38.335Z,13.40
2022-10-07T00:40:37.181Z,13.40
2022-10-07T00:45:37.630Z,13.40
2022-10-07T00:50:37.301Z,13.30
2022-10-07T00:55:35.476Z,13.30
2022-10-07T01:00:33.694Z,13.20
2022-10-07T01:05:32.007Z,13.20
2022-10-07T01:10:39.310Z,13.20
2022-10-07T01:15:41.107Z,13.20
2022-10-07T01:20:47.269Z,13.20
2022-10-07T01:26:05.109Z,13.10
2022-10-07T01:31:06.587Z,13.10
2022-10-07T01:36:10.555Z,13.00
2022-10-07T01:41:12.592Z,13.00
2022-10-07T01:46:19.143Z,13.00
2022-10-07T01:51:20.070Z,13.00
2022-10-07T01:56:34.738Z,13.00
2022-10-07T02:01:43.597Z,12.90
2022-10-07T02:06:52.233Z,12.90
2022-10-07T02:11:56.174Z,12.80
2022-10-07T02:17:02.908Z,12.80
2022-10-07T02:22:03.262Z,12.70
2022-10-07T02:27:08.957Z,12.70
2022-10-07T02:32:12.747Z,12.70
2022-10-07T02:37:19.000Z,12.70
2022-10-07T02:42:26.152Z,12.60
2022-10-07T02:47:32.128Z,12.60
2022-10-07T02:52:32.999Z,12.60
2022-10-07T02:57:34.824Z,12.50
2022-10-07T03:02:39.349Z,12.50
2022-10-07T03:07:37.889Z,12.50
2022-10-07T03:12:37.225Z,12.40
2022-10-07T03:17:36.887Z,12.40
2022-10-07T03:22:35.700Z,12.40
2022-10-07T03:27:34.617Z,12.30
2022-10-07T03:32:33.118Z,12.30
2022-10-07T03:37:32.632Z,12.30
2022-10-07T03:42:31.738Z,12.30
2022-10-07T03:47:29.941Z,12.20
2022-10-07T03:52:28.709Z,12.20
2022-10-07T03:57:47.556Z,12.20
2022-10-07T04:02:46.000Z,12.20
2022-10-07T04:07:44.948Z,12.20
2022-10-07T04:12:45.705Z,12.10
2022-10-07T04:17:46.735Z,12.10
2022-10-07T04:22:47.264Z,12.10
2022-10-07T04:27:52.506Z,12.00
2022-10-07T04:32:52.564Z,12.00
2022-10-07T04:37:54.531Z,12.00
2022-10-07T04:43:14.196Z,12.00
2022-10-07T04:48:13.028Z,11.90
2022-10-07T04:53:14.372Z,11.90
2022-10-07T04:58:14.493Z,11.90
2022-10-07T05:03:14.306Z,11.90
2022-10-07T05:08:12.777Z,11.80
2022-10-07T05:13:14.275Z,11.80
2022-10-07T05:18:13.950Z,11.80
2022-10-07T05:23:12.238Z,11.80
2022-10-07T05:28:11.784Z,11.70
2022-10-07T05:33:12.383Z,11.70
2022-10-07T05:38:11.865Z,11.70
2022-10-07T05:43:11.506Z,11.70
2022-10-07T05:48:09.759Z,11.70
2022-10-07T05:53:09.344Z,11.70
2022-10-07T05:58:07.663Z,11.60
2022-10-07T06:03:06.090Z,11.60
2022-10-07T06:08:05.439Z,11.60
2022-10-07T06:13:10.961Z,11.60
2022-10-07T06:18:12.052Z,11.60
2022-10-07T06:23:10.304Z,11.60
2022-10-07T06:28:09.896Z,11.60
2022-10-07T06:33:08.393Z,11.60
2022-10-07T06:38:07.333Z,11.70
2022-10-07T06:43:06.428Z,11.70
2022-10-07T06:48:19.095Z,11.80
2022-10-07T06:53:17.373Z,12.00
2022-10-07T06:58:16.707Z,12.10
2022-10-07T07:03:16.004Z,12.20
2022-10-07T07:08:17.344Z,12.40
2022-10-07T07:13:16.298Z,12.50
2022-10-07T07:18:14.575Z,12.60
2022-10-07T07:23:13.381Z,12.60
2022-10-07T07:28:16.083Z,12.70
2022-10-07T07:33:14.802Z,12.70
2022-10-07T07:38:13.370Z,12.80
2022-10-07T07:43:13.021Z,12.90
2022-10-07T07:48:13.025Z,13.00
2022-10-07T07:53:11.591Z,13.10
2022-10-07T07:58:11.958Z,13.30
2022-10-07T08:03:13.066Z,13.40
2022-10-07T08:08:14.822Z,13.50
2022-10-07T08:13:14.496Z,13.50
2022-10-07T08:18:14.054Z,13.60
2022-10-07T08:23:12.233Z,13.70
2022-10-07T08:28:10.540Z,13.80
2022-10-07T08:33:08.752Z,14.00
2022-10-07T08:38:11.401Z,14.00
2022-10-07T08:43:12.940Z,14.20
2022-10-07T08:48:17.030Z,14.30
2022-10-07T08:53:20.553Z,14.50
2022-10-07T08:58:40.868Z,14.70
2022-10-07T09:03:50.109Z,14.80
2022-10-07T09:08:57.238Z,15.00
2022-10-07T09:20:53.951Z,15.30
2022-10-07T09:25:53.796Z,15.50
2022-10-07T09:30:52.021Z,15.70
2022-10-07T09:35:57.584Z,15.90
2022-10-07T09:41:19.446Z,16.10
2022-10-07T09:46:34.959Z,16.30
2022-10-07T09:51:35.158Z,16.40
2022-10-07T09:56:40.570Z,16.60
2022-10-07T10:01:41.791Z,16.80
2022-10-07T10:06:47.202Z,16.90
2022-10-07T10:11:46.997Z,17.10
2022-10-07T10:16:47.911Z,17.30
2022-10-07T10:21:52.652Z,17.40
2022-10-07T10:27:03.766Z,17.60
2022-10-07T10:32:41.914Z,17.80
2022-10-07T10:37:58.072Z,17.90
2022-10-07T10:43:04.980Z,18.10
2022-10-07T10:48:29.070Z,18.20
2022-10-07T10:53:39.097Z,18.40
2022-10-07T10:58:53.202Z,18.60
2022-10-07T11:04:20.643Z,18.80
2022-10-07T11:09:31.011Z,18.90
2022-10-07T11:14:32.000Z,19.00
2022-10-07T11:19:34.772Z,19.10
2022-10-07T11:24:39.287Z,19.20
2022-10-07T11:29:49.367Z,19.20
2022-10-07T11:34:54.805Z,19.30
2022-10-07T11:39:53.987Z,19.40
2022-10-07T11:45:00.295Z,19.50
2022-10-07T11:50:03.965Z,19.70
2022-10-07T11:55:07.029Z,19.90
2022-10-07T12:00:10.036Z,20.10
2022-10-07T12:05:43.810Z,20.20
2022-10-07T12:10:41.916Z,20.40
2022-10-07T12:15:43.015Z,20.50
2022-10-07T12:27:33.266Z,20.40
2022-10-07T12:33:00.884Z,20.40
2022-10-07T12:38:17.255Z,20.50
2022-10-07T12:43:32.226Z,20.50
2022-10-07T12:48:37.716Z,20.50
2022-10-07T12:53:42.196Z,20.50
2022-10-07T12:59:13.265Z,20.50
2022-10-07T13:05:12.688Z,20.50
2022-10-07T13:10:31.916Z,20.60
2022-10-07T13:15:41.482Z,20.60
2022-10-07T13:21:03.450Z,20.60
2022-10-07T13:26:02.837Z,20.60
2022-10-07T13:31:14.756Z,20.60
2022-10-07T13:36:21.162Z,20.60
2022-10-07T13:41:26.975Z,20.60
2022-10-07T13:46:26.934Z,20.70
2022-10-07T13:51:35.680Z,20.60
2022-10-07T13:56:36.141Z,20.60
2022-10-07T14:01:39.652Z,20.60
2022-10-07T14:06:46.123Z,20.60
2022-10-07T14:11:44.615Z,20.60
2022-10-07T14:16:42.867Z,20.60
2022-10-07T14:21:43.247Z,20.60
2022-10-07T14:26:44.731Z,20.50
2022-10-07T14:32:00.178Z,20.50
2022-10-07T14:37:04.023Z,20.50
2022-10-07T14:42:02.627Z,20.40
2022-10-07T14:47:05.345Z,20.40
2022-10-07T14:52:06.309Z,20.40
2022-10-07T14:57:04.453Z,20.30
2022-10-07T15:02:02.568Z,20.30
2022-10-07T15:07:00.718Z,20.20
2022-10-07T15:12:00.178Z,20.20
2022-10-07T15:16:58.362Z,20.10
2022-10-07T15:21:56.688Z,20.00
2022-10-07T15:26:54.908Z,19.90
2022-10-07T15:31:54.909Z,19.80
2022-10-07T15:36:53.059Z,19.70
2022-10-07T15:41:51.202Z,19.60
2022-10-07T15:46:50.726Z,19.50
2022-10-07T15:51:50.193Z,19.40
2022-10-07T15:56:50.210Z,19.30
2022-10-07T16:01:51.853Z,19.20
2022-10-07T16:06:52.275Z,19.20
2022-10-07T16:11:50.598Z,19.00
2022-10-07T16:17:38.407Z,19.00
2022-10-07T16:22:37.923Z,18.90
2022-10-07T16:27:49.916Z,18.80
2022-10-07T16:32:49.460Z,18.70
2022-10-07T16:37:52.357Z,18.60
2022-10-07T16:42:51.115Z,18.50
2022-10-07T16:47:49.203Z,18.30
2022-10-07T16:52:48.873Z,18.20
2022-10-07T16:57:48.734Z,18.20
2022-10-07T17:02:47.114Z,18.00
2022-10-07T17:07:45.323Z,17.90
2022-10-07T17:12:45.906Z,17.80
2022-10-07T17:17:44.469Z,17.70
2022-10-07T17:22:43.258Z,17.60
2022-10-07T17:27:41.505Z,17.50
2022-10-07T17:39:36.620Z,17.30
2022-10-07T17:44:34.748Z,17.20
2022-10-07T17:49:32.857Z,17.10
2022-10-07T17:54:31.273Z,17.00
2022-10-07T17:59:30.725Z,17.00
2022-10-07T18:04:28.892Z,16.90
2022-10-07T18:09:27.516Z,16.80
2022-10-07T18:14:43.833Z,16.80
2022-10-07T18:19:45.038Z,16.80
2022-10-07T18:24:43.112Z,16.70
2022-10-07T18:29:41.215Z,16.60
2022-10-07T18:34:39.388Z,16.60
2022-10-07T18:39:38.900Z,16.60
2022-10-07T18:44:36.992Z,16.50
2022-10-07T18:49:35.205Z,16.40
2022-10-07T18:54:33.302Z,16.30
2022-10-07T18:59:32.830Z,16.30
2022-10-07T19:04:31.682Z,16.20
2022-10-07T19:09:30.008Z,16.20
2022-10-07T19:14:31.071Z,16.10
2022-10-07T19:19:30.762Z,16.10
2022-10-07T19:24:42.783Z,16.00
2022-10-07T19:30:21.874Z,16.00
2022-10-07T19:35:21.612Z,16.00
2022-10-07T19:40:19.703Z,15.90
2022-10-07T19:45:17.849Z,15.80
2022-10-07T19:50:16.080Z,15.70
2022-10-07T19:55:15.689Z,15.70
2022-10-07T20:00:14.407Z,15.70
2022-10-07T20:05:12.508Z,16.10
2022-10-07T20:10:10.780Z,15.80
2022-10-07T20:15:13.917Z,15.60
2022-10-07T20:20:13.135Z,15.50
2022-10-07T20:25:11.487Z,15.50
2022-10-07T20:30:17.798Z,15.40
2022-10-07T20:35:16.496Z,15.40
2022-10-07T20:40:32.196Z,15.30
2022-10-07T20:45:51.769Z,15.30
2022-10-07T20:50:50.927Z,15.20
2022-10-07T20:55:49.071Z,15.10
2022-10-07T21:00:48.715Z,15.10
2022-10-07T21:05:46.795Z,15.00
2022-10-07T21:10:44.856Z,14.90
2022-10-07T21:15:43.124Z,14.90
2022-10-07T21:20:56.490Z,14.80
2022-10-07T21:25:55.298Z,14.80
2022-10-07T21:30:56.473Z,14.80
2022-10-07T21:36:00.335Z,14.80
2022-10-07T21:41:00.332Z,14.70
2022-10-07T21:45:59.216Z,14.70
2022-10-07T21:51:01.289Z,14.70
2022-10-07T21:56:04.669Z,14.70
2022-10-07T22:01:04.706Z,14.60
2022-10-07T22:06:04.930Z,14.60
2022-10-07T22:11:04.502Z,14.50
2022-10-07T22:16:03.870Z,14.50
2022-10-07T22:21:04.792Z,14.50
2022-10-07T22:26:03.217Z,14.40
2022-10-07T22:31:03.606Z,14.40
2022-10-07T22:36:05.372Z,14.40
2022-10-07T22:41:03.924Z,14.30
2022-10-07T22:46:02.009Z,14.30
2022-10-07T22:51:06.189Z,14.20
2022-10-07T22:56:06.487Z,14.20
2022-10-07T23:01:05.141Z,14.20
2022-10-07T23:06:03.525Z,14.10
2022-10-07T23:11:03.745Z,14.30
2022-10-07T23:16:04.585Z,14.00
2022-10-07T23:21:04.412Z,14.00
2022-10-07T23:26:02.534Z,13.90
2022-10-07T23:31:06.004Z,13.90
2022-10-07T23:36:06.738Z,13.90
2022-10-07T23:41:05.185Z,13.80
2022-10-07T23:46:07.235Z,13.80
2022-10-07T23:51:07.121Z,13.70
2022-10-07T23:56:05.406Z,13.70
